Time,TemperatureF,DewpointF,PressureIn,WindDirection,WindDirectionDegrees,WindSpeedMPH,WindSpeedGustMPH,Humidity,HourlyPrecipIn,Conditions,Clouds,dailyrainin,SoftwareType,DateUTC
2013-01-20 07:59:00,6.3,1.4,30.09,SE,136,0.0,0.0,80,0.00,,,0.00,Wunderground v.1.13,2013-01-20 16:59:00,
2013-01-20 08:04:00,6.3,1.4,30.09,SE,136,0.0,0.0,80,0.00,,,0.00,Wunderground v.1.13,2013-01-20 17:04:00,
2013-01-20 08:09:00,6.3,1.4,30.10,SE,136,0.0,0.0,80,0.00,,,0.00,Wunderground v.1.13,2013-01-20 17:09:00,
2013-01-20 08:14:00,6.3,1.4,30.10,SE,136,0.0,0.0,80,0.00,,,0.00,Wunderground v.1.13,2013-01-20 17:14:00,
2013-01-20 08:19:00,6.3,1.4,30.10,SE,136,0.0,0.0,80,0.00,,,0.00,Wunderground v.1.13,2013-01-20 17:19:00,
2013-01-20 08:24:00,6.1,1.3,30.10,SE,136,0.0,0.0,80,0.00,,,0.00,Wunderground v.1.13,2013-01-20 17:24:00,
2013-01-20 08:29:00,6.1,1.3,30.10,SE,136,0.0,0.0,80,0.00,,,0.00,Wunderground v.1.13,2013-01-20 17:29:00,
2013-01-20 08:34:00,6.1,1.3,30.10,SE,136,0.0,0.0,80,0.00,,,0.00,Wunderground v.1.13,2013-01-20 17:34:00,
2013-01-20 08:39:00,6.0,1.2,30.10,SE,136,0.0,1.0,80,0.00,,,0.00,Wunderground v.1.13,2013-01-20 17:39:00,
2013-01-20 08:44:00,6.0,1.4,30.10,SE,136,0.0,1.0,81,0.00,,,0.00,Wunderground v.1.13,2013-01-20 17:44:00,
2013-01-20 08:49:00,6.0,1.4,30.10,SE,136,0.0,0.0,81,0.00,,,0.00,Wunderground v.1.13,2013-01-20 17:49:00,
2013-01-20 08:55:00,6.0,1.4,30.09,SE,136,0.0,0.0,81,0.00,,,0.00,Wunderground v.1.13,2013-01-20 17:55:00,
2013-01-20 09:00:00,6.0,1.4,30.09,SE,136,0.0,0.0,81,0.00,,,0.00,Wunderground v.1.13,2013-01-20 18:00:00,
2013-01-20 09:05:00,6.0,1.4,30.09,SE,136,0.0,0.0,81,0.00,,,0.00,Wunderground v.1.13,2013-01-20 18:05:00,
2013-01-20 09:10:00,5.8,1.2,30.09,SE,136,0.0,0.0,81,0.00,,,0.00,Wunderground v.1.13,2013-01-20 18:10:00,
2013-01-20 09:15:00,5.8,1.2,30.09,SE,137,0.0,0.0,81,0.00,,,0.00,Wunderground v.1.13,2013-01-20 18:15:00,
2013-01-20 09:20:00,5.6,1.0,30.09,SE,137,0.0,0.0,81,0.00,,,0.00,Wunderground v.1.13,2013-01-20 18:20:00,
2013-01-20 09:25:00,5.6,1.0,30.10,SE,137,0.0,0.0,81,0.00,,,0.00,Wunderground v.1.13,2013-01-20 18:25:00,
2013-01-20 09:30:00,5.6,1.0,30.10,SE,137,0.0,0.0,81,0.00,,,0.00,Wunderground v.1.13,2013-01-20 18:30:00,
2013-01-20 09:35:00,5.6,1.0,30.10,SE,137,0.0,0.0,81,0.00,,,0.00,Wunderground v.1.13,2013-01-20 18:35:00,
2013-01-20 09:40:00,5.6,1.0,30.10,SE,137,0.0,0.0,81,0.00,,,0.00,Wunderground v.1.13,2013-01-20 18:40:00,
2013-01-20 09:45:00,5.8,1.2,30.10,SE,137,0.0,0.0,81,0.00,,,0.00,Wunderground v.1.13,2013-01-20 18:45:00,
2013-01-20 09:50:00,5.8,1.2,30.10,SE,137,0.0,0.0,81,0.00,,,0.00,Wunderground v.1.13,2013-01-20 18:50:00,
2013-01-20 09:55:00,5.6,1.0,30.10,SE,137,0.0,0.0,81,0.00,,,0.00,Wunderground v.1.13,2013-01-20 18:55:00,
2013-01-20 10:00:00,5.6,1.0,30.10,SE,137,0.0,0.0,81,0.00,,,0.00,Wunderground v.1.13,2013-01-20 19:00:00,
2013-01-20 10:05:00,5.4,0.6,30.10,SE,137,0.0,0.0,80,0.00,,,0.00,Wunderground v.1.13,2013-01-20 19:05:00,
2013-01-20 10:10:00,5.4,0.6,30.09,SE,137,0.0,0.0,80,0.00,,,0.00,Wunderground v.1.13,2013-01-20 19:10:00,
2013-01-20 10:15:00,5.4,0.8,30.09,SE,137,0.0,0.0,81,0.00,,,0.00,Wunderground v.1.13,2013-01-20 19:15:00,
2013-01-20 10:20:00,5.4,0.8,30.09,SE,137,0.0,0.0,81,0.00,,,0.00,Wunderground v.1.13,2013-01-20 19:20:00,
2013-01-20 10:25:00,5.4,0.8,30.11,SE,137,0.0,0.0,81,0.00,,,0.00,Wunderground v.1.13,2013-01-20 19:25:00,
2013-01-20 10:30:00,5.6,1.0,30.11,SE,137,0.0,0.0,81,0.00,,,0.00,Wunderground v.1.13,2013-01-20 19:30:00,
2013-01-20 10:35:00,5.8,1.5,30.11,SE,137,0.0,0.0,82,0.00,,,0.00,Wunderground v.1.13,2013-01-20 19:35:00,
2013-01-20 10:40:00,6.0,1.7,30.11,SE,137,0.0,1.0,82,0.00,,,0.00,Wunderground v.1.13,2013-01-20 19:40:00,
2013-01-20 10:45:00,6.0,1.7,30.11,SE,137,0.0,0.0,82,0.00,,,0.00,Wunderground v.1.13,2013-01-20 19:45:00,
2013-01-20 10:50:00,6.1,1.8,30.11,SE,137,0.0,0.0,82,0.00,,,0.00,Wunderground v.1.13,2013-01-20 19:50:00,
2013-01-20 10:55:00,6.1,1.8,30.11,SE,137,0.0,0.0,82,0.00,,,0.00,Wunderground v.1.13,2013-01-20 19:55:00,
2013-01-20 11:00:00,6.3,2.0,30.11,SE,137,0.0,0.0,82,0.00,,,0.00,Wunderground v.1.13,2013-01-20 20:00:00,
2013-01-20 11:05:00,6.5,2.2,30.11,SE,137,0.0,0.0,82,0.00,,,0.00,Wunderground v.1.13,2013-01-20 20:05:00,
2013-01-20 11:10:00,6.7,2.4,30.10,SE,137,0.0,0.0,82,0.00,,,0.00,Wunderground v.1.13,2013-01-20 20:10:00,
2013-01-20 11:15:00,7.0,2.7,30.10,SE,137,0.0,0.0,82,0.00,,,0.00,Wunderground v.1.13,2013-01-20 20:15:00,
2013-01-20 11:20:00,7.2,2.9,30.10,SE,137,0.0,0.0,82,0.00,,,0.00,Wunderground v.1.13,2013-01-20 20:20:00,
2013-01-20 11:25:00,7.4,2.8,30.10,SE,137,0.0,0.0,81,0.00,,,0.00,Wunderground v.1.13,2013-01-20 20:25:00,
2013-01-20 11:30:00,7.4,2.8,30.10,SE,137,0.0,0.0,81,0.00,,,0.00,Wunderground v.1.13,2013-01-20 20:30:00,
2013-01-20 11:35:00,7.7,3.1,30.10,SE,138,0.0,0.0,81,0.00,,,0.00,Wunderground v.1.13,2013-01-20 20:35:00,
2013-01-20 11:40:00,7.9,3.3,30.10,SE,138,0.0,0.0,81,0.00,,,0.00,Wunderground v.1.13,2013-01-20 20:40:00,
2013-01-20 11:46:00,8.1,3.5,30.10,SE,138,0.0,0.0,81,0.00,,,0.00,Wunderground v.1.13,2013-01-20 20:46:00,
2013-01-20 11:51:00,8.3,3.4,30.10,SE,138,0.0,0.0,80,0.00,,,0.00,Wunderground v.1.13,2013-01-20 20:51:00,
2013-01-20 11:56:00,8.3,3.4,30.11,SE,138,0.0,0.0,80,0.00,,,0.00,Wunderground v.1.13,2013-01-20 20:56:00,
2013-01-20 12:01:00,7.9,3.0,30.11,SE,138,0.0,0.0,80,0.00,,,0.00,Wunderground v.1.13,2013-01-20 21:01:00,
2013-01-20 12:06:00,7.7,2.8,30.11,SE,138,0.0,0.0,80,0.00,,,0.00,Wunderground v.1.13,2013-01-20 21:06:00,
2013-01-20 12:11:00,7.6,2.7,30.12,SE,138,0.0,0.0,80,0.00,,,0.00,Wunderground v.1.13,2013-01-20 21:11:00,
2013-01-20 12:16:00,7.6,2.7,30.12,SE,138,0.0,0.0,80,0.00,,,0.00,Wunderground v.1.13,2013-01-20 21:16:00,
2013-01-20 12:21:00,7.7,2.8,30.12,SE,138,0.0,0.0,80,0.00,,,0.00,Wunderground v.1.13,2013-01-20 21:21:00,
2013-01-20 12:26:00,7.7,2.8,30.12,SE,138,0.0,0.0,80,0.00,,,0.00,Wunderground v.1.13,2013-01-20 21:26:00,
2013-01-20 12:31:00,7.9,3.0,30.12,SE,138,0.0,0.0,80,0.00,,,0.00,Wunderground v.1.13,2013-01-20 21:31:00,
2013-01-20 12:37:00,8.1,3.2,30.12,SE,138,0.0,0.0,80,0.00,,,0.00,Wunderground v.1.13,2013-01-20 21:37:00,
2013-01-20 12:42:00,8.3,3.4,30.11,SE,138,0.0,0.0,80,0.00,,,0.00,Wunderground v.1.13,2013-01-20 21:42:00,
2013-01-20 12:47:00,8.4,3.5,30.11,SE,138,0.0,0.0,80,0.00,,,0.00,Wunderground v.1.13,2013-01-20 21:47:00,
2013-01-20 12:52:00,8.8,3.9,30.11,SE,138,0.0,0.0,80,0.00,,,0.00,Wunderground v.1.13,2013-01-20 21:52:00,
2013-01-20 12:57:00,9.0,4.1,30.11,SE,138,0.0,0.0,80,0.00,,,0.00,Wunderground v.1.13,2013-01-20 21:57:00,
2013-01-20 13:02:00,9.2,4.3,30.11,SE,138,0.0,0.0,80,0.00,,,0.00,Wunderground v.1.13,2013-01-20 22:02:00,
2013-01-20 13:07:00,9.3,4.4,30.11,SE,138,0.0,1.0,80,0.00,,,0.00,Wunderground v.1.13,2013-01-20 22:07:00,
2013-01-20 13:12:00,9.3,4.4,30.12,SE,138,0.0,0.0,80,0.00,,,0.00,Wunderground v.1.13,2013-01-20 22:12:00,
2013-01-20 13:17:00,9.5,4.6,30.12,SE,138,0.0,0.0,80,0.00,,,0.00,Wunderground v.1.13,2013-01-20 22:17:00,
2013-01-20 13:22:00,9.7,4.8,30.12,SE,138,0.0,2.0,80,0.00,,,0.00,Wunderground v.1.13,2013-01-20 22:22:00,
2013-01-20 13:27:00,9.7,4.5,30.11,SE,138,0.0,0.0,79,0.00,,,0.00,Wunderground v.1.13,2013-01-20 22:27:00,
2013-01-20 13:32:00,9.9,4.7,30.11,SE,138,0.0,0.0,79,0.00,,,0.00,Wunderground v.1.13,2013-01-20 22:32:00,
2013-01-20 13:37:00,10.0,4.8,30.11,SE,138,0.0,0.0,79,0.00,,,0.00,Wunderground v.1.13,2013-01-20 22:37:00,
2013-01-20 13:42:00,10.0,4.8,30.11,SE,138,0.0,0.0,79,0.00,,,0.00,Wunderground v.1.13,2013-01-20 22:42:00,
2013-01-20 13:47:00,10.0,4.8,30.11,SE,138,0.0,0.0,79,0.00,,,0.00,Wunderground v.1.13,2013-01-20 22:47:00,
2013-01-20 13:52:00,10.0,5.1,30.11,SE,138,0.0,0.0,80,0.00,,,0.00,Wunderground v.1.13,2013-01-20 22:52:00,
2013-01-20 13:57:00,10.2,5.3,30.11,SE,138,0.0,0.0,80,0.00,,,0.00,Wunderground v.1.13,2013-01-20 22:57:00,
2013-01-20 14:02:00,10.2,5.3,30.11,SE,138,0.0,0.0,80,0.00,,,0.00,Wunderground v.1.13,2013-01-20 23:02:00,
2013-01-20 14:07:00,10.2,5.5,30.11,SE,138,0.0,0.0,81,0.00,,,0.00,Wunderground v.1.13,2013-01-20 23:07:00,
2013-01-20 14:12:00,10.4,5.5,30.11,SE,138,0.0,0.0,80,0.00,,,0.00,Wunderground v.1.13,2013-01-20 23:12:00,
2013-01-20 14:18:00,10.5,5.5,30.11,SE,138,0.0,0.0,80,0.00,,,0.00,Wunderground v.1.13,2013-01-20 23:18:00,
2013-01-20 14:23:00,10.5,5.5,30.11,SE,138,0.0,0.0,80,0.00,,,0.00,Wunderground v.1.13,2013-01-20 23:23:00,
2013-01-20 14:28:00,10.5,5.5,30.11,SE,138,0.0,0.0,80,0.00,,,0.00,Wunderground v.1.13,2013-01-20 23:28:00,
2013-01-20 14:33:00,10.7,5.7,30.11,SE,138,0.0,0.0,80,0.00,,,0.00,Wunderground v.1.13,2013-01-20 23:33:00,
2013-01-20 14:38:00,10.7,5.5,30.11,SE,138,0.0,0.0,79,0.00,,,0.00,Wunderground v.1.13,2013-01-20 23:38:00,
2013-01-20 14:43:00,10.7,5.5,30.11,SE,138,0.0,0.0,79,0.00,,,0.00,Wunderground v.1.13,2013-01-20 23:43:00,
2013-01-20 14:48:00,10.7,5.7,30.11,SE,138,0.0,0.0,80,0.00,,,0.00,Wunderground v.1.13,2013-01-20 23:48:00,
2013-01-20 14:53:00,10.7,5.5,30.11,SE,138,0.0,0.0,79,0.00,,,0.00,Wunderground v.1.13,2013-01-20 23:53:00,
2013-01-20 14:58:00,10.7,5.7,30.10,NW,315,0.0,0.0,80,0.00,,,0.00,Wunderground v.1.13,2013-01-20 23:58:00,
2013-01-20 15:03:00,10.7,5.7,30.10,NW,315,0.0,0.0,80,0.00,,,0.00,Wunderground v.1.13,2013-01-21 00:03:00,
2013-01-20 15:10:00,10.7,5.7,30.10,NW,315,0.0,0.0,80,0.00,,,0.00,Wunderground v.1.13,2013-01-21 00:10:00,
2013-01-20 15:19:00,10.5,5.5,30.10,NW,315,0.0,0.0,80,0.00,,,0.00,Wunderground v.1.13,2013-01-21 00:19:00,
2013-01-20 15:24:00,10.5,5.8,30.10,NW,315,0.0,1.0,81,0.00,,,0.00,Wunderground v.1.13,2013-01-21 00:24:00,
2013-01-20 15:30:00,10.4,5.7,30.10,NW,315,0.0,0.0,81,0.00,,,0.00,Wunderground v.1.13,2013-01-21 00:30:00,
2013-01-20 15:35:00,10.4,5.7,30.10,NW,315,0.0,0.0,81,0.00,,,0.00,Wunderground v.1.13,2013-01-21 00:35:00,
2013-01-20 15:40:00,10.4,5.7,30.10,NW,315,0.0,0.0,81,0.00,,,0.00,Wunderground v.1.13,2013-01-21 00:40:00,
2013-01-20 15:45:00,10.4,5.7,30.10,NW,315,0.0,0.0,81,0.00,,,0.00,Wunderground v.1.13,2013-01-21 00:45:00,
2013-01-20 15:50:00,10.5,5.8,30.10,NW,315,0.0,0.0,81,0.00,,,0.00,Wunderground v.1.13,2013-01-21 00:50:00,
2013-01-20 15:55:00,10.5,5.8,30.10,NW,315,0.0,0.0,81,0.00,,,0.00,Wunderground v.1.13,2013-01-21 00:55:00,
2013-01-20 16:00:00,10.5,6.1,30.10,NW,315,0.0,0.0,82,0.00,,,0.00,Wunderground v.1.13,2013-01-21 01:00:00,
2013-01-20 16:05:00,10.7,6.3,30.10,NW,315,0.0,0.0,82,0.00,,,0.00,Wunderground v.1.13,2013-01-21 01:05:00,
2013-01-20 16:10:00,10.7,6.3,30.11,NW,315,0.0,0.0,82,0.00,,,0.00,Wunderground v.1.13,2013-01-21 01:10:00,
2013-01-20 16:15:00,10.7,6.3,30.11,NW,315,0.0,0.0,82,0.00,,,0.00,Wunderground v.1.13,2013-01-21 01:15:00,
2013-01-20 16:20:00,10.5,6.1,30.11,NW,315,0.0,0.0,82,0.00,,,0.00,Wunderground v.1.13,2013-01-21 01:20:00,
2013-01-20 16:25:00,10.5,6.1,30.11,NW,315,0.0,0.0,82,0.00,,,0.00,Wunderground v.1.13,2013-01-21 01:25:00,
2013-01-20 16:30:00,10.4,6.0,30.11,NW,315,0.0,0.0,82,0.00,,,0.00,Wunderground v.1.13,2013-01-21 01:30:00,
2013-01-20 16:35:00,10.4,6.0,30.11,NW,315,0.0,0.0,82,0.00,,,0.00,Wunderground v.1.13,2013-01-21 01:35:00,
2013-01-20 16:40:00,10.4,6.0,30.11,NW,315,0.0,0.0,82,0.00,,,0.00,Wunderground v.1.13,2013-01-21 01:40:00,
2013-01-20 16:45:00,10.2,5.8,30.11,NW,315,0.0,0.0,82,0.00,,,0.00,Wunderground v.1.13,2013-01-21 01:45:00,
2013-01-20 16:50:00,10.2,5.8,30.11,NW,315,0.0,0.0,82,0.00,,,0.00,Wunderground v.1.13,2013-01-21 01:50:00,
2013-01-20 16:55:00,10.2,5.8,30.11,NW,315,0.0,0.0,82,0.00,,,0.00,Wunderground v.1.13,2013-01-21 01:55:00,
2013-01-20 17:00:00,10.2,5.8,30.11,NW,315,0.0,0.0,82,0.00,,,0.00,Wunderground v.1.13,2013-01-21 02:00:00,
2013-01-20 17:05:00,10.2,5.8,30.11,NW,315,0.0,0.0,82,0.00,,,0.00,Wunderground v.1.13,2013-01-21 02:05:00,
2013-01-20 17:56:00,9.9,5.8,30.10,NW,315,0.0,0.0,83,0.00,,,0.00,Wunderground v.1.13,2013-01-21 02:56:00,
2013-01-20 18:01:00,9.9,5.8,30.10,NW,315,0.0,0.0,83,0.00,,,0.00,Wunderground v.1.13,2013-01-21 03:01:00,
2013-01-20 18:06:00,9.9,5.8,30.10,WSW,251,0.0,2.0,83,0.00,,,0.00,Wunderground v.1.13,2013-01-21 03:06:00,
2013-01-20 18:11:00,9.9,5.8,30.11,NE,34,0.0,0.0,83,0.00,,,0.00,Wunderground v.1.13,2013-01-21 03:11:00,
2013-01-20 18:16:00,10.0,5.9,30.11,ESE,109,0.0,0.0,83,0.00,,,0.00,Wunderground v.1.13,2013-01-21 03:16:00,
2013-01-20 18:21:00,10.0,5.9,30.11,ESE,109,0.0,0.0,83,0.00,,,0.00,Wunderground v.1.13,2013-01-21 03:21:00,
2013-01-20 18:26:00,10.0,5.9,30.11,ESE,109,0.0,0.0,83,0.00,,,0.00,Wunderground v.1.13,2013-01-21 03:26:00,
2013-01-20 18:31:00,10.0,5.9,30.11,ESE,109,0.0,0.0,83,0.00,,,0.00,Wunderground v.1.13,2013-01-21 03:31:00,
2013-01-20 18:36:00,10.0,5.9,30.11,ESE,109,0.0,1.0,83,0.00,,,0.00,Wunderground v.1.13,2013-01-21 03:36:00,
2013-01-20 18:41:00,10.0,5.9,30.11,SSW,197,0.0,1.0,83,0.00,,,0.00,Wunderground v.1.13,2013-01-21 03:41:00,
2013-01-20 18:46:00,9.9,5.8,30.11,SSW,197,0.0,0.0,83,0.00,,,0.00,Wunderground v.1.13,2013-01-21 03:46:00,
2013-01-20 18:51:00,9.9,5.8,30.11,SSW,197,0.0,0.0,83,0.00,,,0.00,Wunderground v.1.13,2013-01-21 03:51:00,
2013-01-20 18:56:00,9.7,5.6,30.11,SSW,197,0.0,0.0,83,0.00,,,0.00,Wunderground v.1.13,2013-01-21 03:56:00,
2013-01-20 19:01:00,9.7,5.6,30.11,SSW,200,0.0,1.0,83,0.00,,,0.00,Wunderground v.1.13,2013-01-21 04:01:00,
2013-01-20 19:06:00,9.5,5.4,30.11,SSW,200,0.0,0.0,83,0.00,,,0.00,Wunderground v.1.13,2013-01-21 04:06:00,
2013-01-20 19:11:00,9.5,5.4,30.11,SSW,200,0.0,0.0,83,0.00,,,0.00,Wunderground v.1.13,2013-01-21 04:11:00,
2013-01-20 19:16:00,9.5,5.4,30.11,SSW,200,0.0,1.0,83,0.00,,,0.00,Wunderground v.1.13,2013-01-21 04:16:00,
2013-01-20 19:21:00,9.5,5.4,30.11,SSW,200,0.0,0.0,83,0.00,,,0.00,Wunderground v.1.13,2013-01-21 04:21:00,
2013-01-20 19:27:00,9.3,5.2,30.12,SSW,200,0.0,0.0,83,0.00,,,0.00,Wunderground v.1.13,2013-01-21 04:27:00,
2013-01-20 19:32:00,9.3,5.2,30.12,SSW,200,0.0,0.0,83,0.00,,,0.00,Wunderground v.1.13,2013-01-21 04:32:00,
2013-01-20 19:37:00,9.3,5.2,30.12,SSW,200,0.0,0.0,83,0.00,,,0.00,Wunderground v.1.13,2013-01-21 04:37:00,
2013-01-20 19:42:00,9.3,5.2,30.12,WSW,254,0.0,2.0,83,0.00,,,0.00,Wunderground v.1.13,2013-01-21 04:42:00,
2013-01-20 19:47:00,9.2,5.1,30.12,WSW,254,0.0,0.0,83,0.00,,,0.00,Wunderground v.1.13,2013-01-21 04:47:00,
2013-01-20 19:52:00,9.2,5.1,30.12,WSW,254,0.0,0.0,83,0.00,,,0.00,Wunderground v.1.13,2013-01-21 04:52:00,
2013-01-20 19:57:00,9.0,4.9,30.11,West,264,1.0,2.0,83,0.00,,,0.00,Wunderground v.1.13,2013-01-21 04:57:00,
2013-01-20 20:00:00,9.0,4.9,30.11,West,264,0.0,0.0,83,0.00,,,0.00,Wunderground v.1.13,2013-01-21 05:00:00,
2013-01-20 20:01:00,9.0,4.9,30.11,West,264,0.0,0.0,83,0.00,,,0.00,Wunderground v.1.13,2013-01-21 05:01:00,
2013-01-20 20:03:00,8.8,4.7,30.11,West,264,0.0,0.0,83,0.00,,,0.00,Wunderground v.1.13,2013-01-21 05:03:00,
2013-01-20 20:08:00,8.8,4.7,30.11,West,264,0.0,0.0,83,0.00,,,0.00,Wunderground v.1.13,2013-01-21 05:08:00,
2013-01-20 20:13:00,8.8,4.7,30.11,West,264,0.0,1.0,83,0.00,,,0.00,Wunderground v.1.13,2013-01-21 05:13:00,
2013-01-20 20:18:00,9.0,4.9,30.11,West,264,0.0,0.0,83,0.00,,,0.00,Wunderground v.1.13,2013-01-21 05:18:00,
2013-01-20 20:23:00,9.0,4.9,30.11,West,264,0.0,0.0,83,0.00,,,0.00,Wunderground v.1.13,2013-01-21 05:23:00,
2013-01-20 20:28:00,9.0,4.9,30.12,West,264,0.0,0.0,83,0.00,,,0.00,Wunderground v.1.13,2013-01-21 05:28:00,
2013-01-20 20:33:00,9.0,4.9,30.12,West,264,0.0,1.0,83,0.00,,,0.00,Wunderground v.1.13,2013-01-21 05:33:00,
2013-01-20 20:38:00,9.0,4.9,30.12,West,264,0.0,0.0,83,0.00,,,0.00,Wunderground v.1.13,2013-01-21 05:38:00,
2013-01-20 20:43:00,9.0,4.9,30.12,West,264,0.0,0.0,83,0.00,,,0.00,Wunderground v.1.13,2013-01-21 05:43:00,
2013-01-20 20:48:00,9.0,4.9,30.12,West,264,0.0,0.0,83,0.00,,,0.00,Wunderground v.1.13,2013-01-21 05:48:00,
2013-01-20 20:53:00,9.0,4.9,30.12,West,264,0.0,0.0,83,0.00,,,0.00,Wunderground v.1.13,2013-01-21 05:53:00,
2013-01-20 20:58:00,9.0,4.9,30.13,West,264,0.0,0.0,83,0.00,,,0.00,Wunderground v.1.13,2013-01-21 05:58:00,
2013-01-20 21:03:00,8.8,4.4,30.13,West,264,0.0,1.0,82,0.00,,,0.00,Wunderground v.1.13,2013-01-21 06:03:00,
2013-01-20 21:09:00,8.8,4.4,30.13,West,264,0.0,1.0,82,0.00,,,0.00,Wunderground v.1.13,2013-01-21 06:09:00,
2013-01-20 21:14:00,8.8,4.4,30.13,West,264,0.0,0.0,82,0.00,,,0.00,Wunderground v.1.13,2013-01-21 06:14:00,
2013-01-20 21:19:00,8.8,4.4,30.13,West,264,0.0,0.0,82,0.00,,,0.00,Wunderground v.1.13,2013-01-21 06:19:00,
2013-01-20 21:24:00,8.8,4.4,30.13,West,264,0.0,0.0,82,0.00,,,0.00,Wunderground v.1.13,2013-01-21 06:24:00,